SEKJK ESSA-ESOW
Flight info
| Callsign | SEKJK |
|---|---|
| Flight time | 0h 26m |
| Altitude | 1500 |
| Route | DCT |
| Aircraft | C172/L-S/N |
Departure
| Time | 2026-04-22 17:21 |
|---|---|
| Airport | Stockholm-Arlanda Airport (ESSA) |
Arrival
| Time | 2026-04-22 17:47 |
|---|---|
| Airport | Stockholm Västerås Airport (ESOW) |
| Time | Latitude | Longitude | Altitude | Speed | Heading |
|---|---|---|---|---|---|
| 2026-04-22 17:02 | 59.64034 | 17.91903 | 128 ft | 0 kts | 280° |
| 2026-04-22 17:14 | 59.64034 | 17.91902 | 128 ft | 0 kts | 280° |
| 2026-04-22 17:14 | 59.64038 | 17.91888 | 128 ft | 7 kts | 325° |
| 2026-04-22 17:14 | 59.64072 | 17.91954 | 128 ft | 9 kts | 59° |
| 2026-04-22 17:15 | 59.64100 | 17.91983 | 128 ft | 10 kts | 11° |
| 2026-04-22 17:15 | 59.64144 | 17.91891 | 128 ft | 9 kts | 281° |
| 2026-04-22 17:15 | 59.64188 | 17.91853 | 128 ft | 6 kts | 13° |
| 2026-04-22 17:15 | 59.64230 | 17.91868 | 128 ft | 9 kts | 9° |
| 2026-04-22 17:16 | 59.64293 | 17.91892 | 128 ft | 13 kts | 11° |
| 2026-04-22 17:16 | 59.64357 | 17.91915 | 128 ft | 7 kts | 10° |
| 2026-04-22 17:16 | 59.64396 | 17.91913 | 128 ft | 3 kts | 326° |
| 2026-04-22 17:16 | 59.64409 | 17.91846 | 128 ft | 6 kts | 280° |
| 2026-04-22 17:17 | 59.64411 | 17.91825 | 128 ft | 0 kts | 279° |
| 2026-04-22 17:17 | 59.64411 | 17.91824 | 128 ft | 0 kts | 279° |
| 2026-04-22 17:18 | 59.64412 | 17.91811 | 128 ft | 9 kts | 279° |
| 2026-04-22 17:18 | 59.64422 | 17.91684 | 128 ft | 9 kts | 278° |
| 2026-04-22 17:18 | 59.64437 | 17.91592 | 128 ft | 4 kts | 325° |
| 2026-04-22 17:18 | 59.64454 | 17.91585 | 128 ft | 0 kts | 6° |
| 2026-04-22 17:19 | 59.64907 | 17.91747 | 128 ft | 67 kts | 6° |
| 2026-04-22 17:20 | 59.65865 | 17.92187 | 340 ft | 69 kts | 8° |
| 2026-04-22 17:20 | 59.66645 | 17.92190 | 653 ft | 66 kts | 304° |
| 2026-04-22 17:21 | 59.66777 | 17.91347 | 900 ft | 63 kts | 302° |
| 2026-04-22 17:21 | 59.67185 | 17.89532 | 1115 ft | 86 kts | 301° |
| 2026-04-22 17:22 | 59.67721 | 17.87166 | 1138 ft | 101 kts | 301° |
| 2026-04-22 17:22 | 59.67906 | 17.86352 | 1126 ft | 104 kts | 300° |
| 2026-04-22 17:22 | 59.68501 | 17.83721 | 1104 ft | 107 kts | 300° |
| 2026-04-22 17:23 | 59.68809 | 17.82400 | 1100 ft | 107 kts | 300° |
| 2026-04-22 17:23 | 59.69425 | 17.79758 | 1099 ft | 106 kts | 301° |
| 2026-04-22 17:23 | 59.69743 | 17.78445 | 1100 ft | 106 kts | 301° |
| 2026-04-22 17:24 | 59.70065 | 17.77135 | 1100 ft | 106 kts | 302° |
| 2026-04-22 17:24 | 59.70397 | 17.75841 | 1100 ft | 106 kts | 303° |
| 2026-04-22 17:24 | 59.70689 | 17.74672 | 1098 ft | 108 kts | 295° |
| 2026-04-22 17:24 | 59.70671 | 17.73152 | 1137 ft | 111 kts | 272° |
| 2026-04-22 17:25 | 59.70608 | 17.71625 | 1118 ft | 113 kts | 274° |
| 2026-04-22 17:25 | 59.70559 | 17.70079 | 1105 ft | 114 kts | 275° |
| 2026-04-22 17:25 | 59.70519 | 17.68521 | 1100 ft | 113 kts | 275° |
| 2026-04-22 17:25 | 59.70481 | 17.66971 | 1099 ft | 113 kts | 275° |
| 2026-04-22 17:26 | 59.70442 | 17.65418 | 1099 ft | 113 kts | 275° |
| 2026-04-22 17:26 | 59.70411 | 17.63876 | 1132 ft | 110 kts | 276° |
| 2026-04-22 17:26 | 59.70383 | 17.62559 | 1245 ft | 104 kts | 275° |
| 2026-04-22 17:26 | 59.70356 | 17.62222 | 1271 ft | 106 kts | 267° |
| 2026-04-22 17:27 | 59.70134 | 17.61073 | 1375 ft | 106 kts | 259° |
| 2026-04-22 17:27 | 59.69856 | 17.59711 | 1417 ft | 110 kts | 258° |
| 2026-04-22 17:27 | 59.69572 | 17.58310 | 1480 ft | 110 kts | 258° |
| 2026-04-22 17:27 | 59.69283 | 17.56896 | 1511 ft | 113 kts | 258° |
| 2026-04-22 17:28 | 59.68989 | 17.55442 | 1515 ft | 115 kts | 258° |
| 2026-04-22 17:28 | 59.68692 | 17.53960 | 1509 ft | 117 kts | 258° |
| 2026-04-22 17:28 | 59.68392 | 17.52454 | 1504 ft | 118 kts | 258° |
| 2026-04-22 17:28 | 59.68091 | 17.50955 | 1501 ft | 118 kts | 257° |
| 2026-04-22 17:29 | 59.67783 | 17.49445 | 1500 ft | 118 kts | 258° |
| 2026-04-22 17:29 | 59.67483 | 17.47939 | 1499 ft | 118 kts | 258° |
| 2026-04-22 17:29 | 59.67181 | 17.46428 | 1500 ft | 118 kts | 258° |
| 2026-04-22 17:29 | 59.66881 | 17.44922 | 1500 ft | 118 kts | 258° |
| 2026-04-22 17:30 | 59.66581 | 17.43418 | 1500 ft | 118 kts | 258° |
| 2026-04-22 17:30 | 59.66280 | 17.41915 | 1500 ft | 118 kts | 258° |
| 2026-04-22 17:30 | 59.65979 | 17.40408 | 1500 ft | 118 kts | 258° |
| 2026-04-22 17:30 | 59.65678 | 17.38903 | 1500 ft | 118 kts | 258° |
| 2026-04-22 17:31 | 59.65376 | 17.37395 | 1500 ft | 118 kts | 258° |
| 2026-04-22 17:31 | 59.65074 | 17.35891 | 1500 ft | 118 kts | 258° |
| 2026-04-22 17:31 | 59.64773 | 17.34391 | 1500 ft | 118 kts | 258° |
| 2026-04-22 17:31 | 59.64473 | 17.32894 | 1518 ft | 116 kts | 257° |
| 2026-04-22 17:32 | 59.64177 | 17.31413 | 1515 ft | 116 kts | 257° |
| 2026-04-22 17:32 | 59.63881 | 17.29936 | 1518 ft | 116 kts | 257° |
| 2026-04-22 17:32 | 59.63588 | 17.28470 | 1518 ft | 116 kts | 257° |
| 2026-04-22 17:32 | 59.63292 | 17.26997 | 1519 ft | 116 kts | 257° |
| 2026-04-22 17:33 | 59.63094 | 17.26008 | 1519 ft | 116 kts | 257° |
| 2026-04-22 17:33 | 59.62700 | 17.24044 | 1518 ft | 116 kts | 257° |
| 2026-04-22 17:33 | 59.62403 | 17.22570 | 1518 ft | 116 kts | 257° |
| 2026-04-22 17:33 | 59.62107 | 17.21097 | 1519 ft | 116 kts | 257° |
| 2026-04-22 17:34 | 59.61811 | 17.19623 | 1519 ft | 116 kts | 257° |
| 2026-04-22 17:34 | 59.61515 | 17.18153 | 1518 ft | 116 kts | 257° |
| 2026-04-22 17:34 | 59.61219 | 17.16685 | 1518 ft | 116 kts | 257° |
| 2026-04-22 17:34 | 59.60931 | 17.15251 | 1518 ft | 116 kts | 257° |
| 2026-04-22 17:35 | 59.60642 | 17.13752 | 1519 ft | 115 kts | 258° |
| 2026-04-22 17:35 | 59.60359 | 17.12277 | 1519 ft | 115 kts | 258° |
| 2026-04-22 17:35 | 59.60076 | 17.10798 | 1518 ft | 115 kts | 258° |
| 2026-04-22 17:35 | 59.59792 | 17.09321 | 1518 ft | 115 kts | 258° |
| 2026-04-22 17:36 | 59.59510 | 17.07850 | 1519 ft | 115 kts | 258° |
| 2026-04-22 17:36 | 59.59227 | 17.06380 | 1518 ft | 115 kts | 258° |
| 2026-04-22 17:36 | 59.58941 | 17.04895 | 1518 ft | 115 kts | 258° |
| 2026-04-22 17:36 | 59.58658 | 17.03423 | 1518 ft | 115 kts | 258° |
| 2026-04-22 17:37 | 59.58375 | 17.01958 | 1518 ft | 115 kts | 258° |
| 2026-04-22 17:37 | 59.58091 | 17.00484 | 1518 ft | 115 kts | 258° |
| 2026-04-22 17:37 | 59.57815 | 16.99002 | 1518 ft | 115 kts | 259° |
| 2026-04-22 17:37 | 59.57544 | 16.97520 | 1519 ft | 115 kts | 259° |
| 2026-04-22 17:38 | 59.57273 | 16.96037 | 1518 ft | 115 kts | 259° |
| 2026-04-22 17:38 | 59.57004 | 16.94568 | 1518 ft | 115 kts | 259° |
| 2026-04-22 17:38 | 59.56732 | 16.93083 | 1506 ft | 116 kts | 259° |
| 2026-04-22 17:38 | 59.56461 | 16.91594 | 1500 ft | 116 kts | 259° |
| 2026-04-22 17:39 | 59.56196 | 16.90101 | 1499 ft | 115 kts | 259° |
| 2026-04-22 17:39 | 59.55938 | 16.88613 | 1499 ft | 115 kts | 259° |
| 2026-04-22 17:39 | 59.55425 | 16.85635 | 1500 ft | 115 kts | 261° |
| 2026-04-22 17:40 | 59.55180 | 16.84144 | 1500 ft | 115 kts | 261° |
| 2026-04-22 17:40 | 59.54937 | 16.82653 | 1500 ft | 114 kts | 261° |
| 2026-04-22 17:40 | 59.54706 | 16.81156 | 1500 ft | 114 kts | 262° |
| 2026-04-22 17:40 | 59.54487 | 16.79670 | 1518 ft | 111 kts | 263° |
| 2026-04-22 17:41 | 59.54295 | 16.78208 | 1527 ft | 110 kts | 266° |
| 2026-04-22 17:41 | 59.54140 | 16.76739 | 1532 ft | 110 kts | 268° |
| 2026-04-22 17:41 | 59.53992 | 16.75272 | 1532 ft | 110 kts | 268° |
| 2026-04-22 17:41 | 59.53845 | 16.73836 | 1516 ft | 104 kts | 268° |
| 2026-04-22 17:42 | 59.53700 | 16.72503 | 1477 ft | 95 kts | 268° |
| 2026-04-22 17:42 | 59.53558 | 16.71294 | 1481 ft | 88 kts | 268° |
| 2026-04-22 17:42 | 59.53418 | 16.70156 | 1436 ft | 88 kts | 268° |
| 2026-04-22 17:42 | 59.53279 | 16.68960 | 1309 ft | 93 kts | 267° |
| 2026-04-22 17:43 | 59.53141 | 16.67743 | 1176 ft | 90 kts | 267° |
| 2026-04-22 17:43 | 59.53008 | 16.66597 | 1090 ft | 83 kts | 268° |
| 2026-04-22 17:43 | 59.52881 | 16.65557 | 1024 ft | 78 kts | 267° |
| 2026-04-22 17:43 | 59.52752 | 16.64537 | 1000 ft | 76 kts | 268° |
| 2026-04-22 17:44 | 59.52626 | 16.63559 | 1018 ft | 74 kts | 268° |
| 2026-04-22 17:44 | 59.52500 | 16.62583 | 1034 ft | 75 kts | 268° |
| 2026-04-22 17:44 | 59.52441 | 16.61805 | 1035 ft | 71 kts | 288° |
| 2026-04-22 17:44 | 59.52817 | 16.61414 | 1045 ft | 72 kts | 0° |
| 2026-04-22 17:45 | 59.53266 | 16.61579 | 1157 ft | 65 kts | 2° |
| 2026-04-22 17:45 | 59.53701 | 16.61750 | 1207 ft | 66 kts | 0° |
| 2026-04-22 17:45 | 59.54162 | 16.61862 | 1237 ft | 66 kts | 358° |
| 2026-04-22 17:45 | 59.54608 | 16.61997 | 1241 ft | 67 kts | 358° |
| 2026-04-22 17:46 | 59.55065 | 16.62113 | 1261 ft | 65 kts | 356° |
| 2026-04-22 17:46 | 59.55517 | 16.62233 | 1262 ft | 68 kts | 2° |
| 2026-04-22 17:46 | 59.55977 | 16.62445 | 1177 ft | 70 kts | 0° |
| 2026-04-22 17:46 | 59.56433 | 16.62596 | 955 ft | 65 kts | 358° |
| 2026-04-22 17:47 | 59.56874 | 16.62739 | 665 ft | 68 kts | 0° |
| 2026-04-22 17:47 | 59.57375 | 16.62898 | 313 ft | 71 kts | 356° |
| 2026-04-22 17:47 | 59.57823 | 16.62998 | 107 ft | 61 kts | 352° |
| 2026-04-22 17:47 | 59.58191 | 16.63083 | 25 ft | 41 kts | 354° |
| 2026-04-22 17:48 | 59.58346 | 16.63116 | 25 ft | 28 kts | 14° |
| 2026-04-22 17:48 | 59.58500 | 16.63183 | 25 ft | 8 kts | 29° |
| 2026-04-22 17:48 | 59.58518 | 16.63198 | 25 ft | 0 kts | 11° |
| 2026-04-22 17:49 | 59.58546 | 16.63209 | 25 ft | 10 kts | 11° |
| 2026-04-22 17:49 | 59.58649 | 16.63248 | 25 ft | 20 kts | 10° |
| 2026-04-22 17:49 | 59.58795 | 16.63310 | 25 ft | 22 kts | 12° |
| 2026-04-22 17:49 | 59.58939 | 16.63365 | 25 ft | 21 kts | 11° |
| 2026-04-22 17:50 | 59.59077 | 16.63436 | 25 ft | 20 kts | 2° |
| 2026-04-22 17:50 | 59.59215 | 16.63482 | 25 ft | 20 kts | 10° |
| 2026-04-22 17:50 | 59.59351 | 16.63537 | 25 ft | 20 kts | 11° |
| 2026-04-22 17:50 | 59.59489 | 16.63592 | 25 ft | 20 kts | 13° |
| 2026-04-22 17:51 | 59.59627 | 16.63650 | 25 ft | 20 kts | 11° |
| 2026-04-22 17:51 | 59.59764 | 16.63705 | 25 ft | 20 kts | 12° |
| 2026-04-22 17:51 | 59.59903 | 16.63760 | 25 ft | 20 kts | 11° |
| 2026-04-22 17:51 | 59.60041 | 16.63818 | 25 ft | 20 kts | 13° |
| 2026-04-22 17:52 | 59.60149 | 16.63755 | 25 ft | 16 kts | 298° |
| 2026-04-22 17:52 | 59.60172 | 16.63554 | 25 ft | 15 kts | 261° |
| 2026-04-22 17:52 | 59.60130 | 16.63363 | 25 ft | 14 kts | 220° |
| 2026-04-22 17:52 | 59.60124 | 16.63217 | 25 ft | 12 kts | 306° |
| 2026-04-22 17:53 | 59.60185 | 16.63189 | 25 ft | 3 kts | 343° |
| 2026-04-22 17:53 | 59.60198 | 16.63167 | 25 ft | 0 kts | 296° |
| 2026-04-22 17:53 | 59.60198 | 16.63166 | 25 ft | 0 kts | 296° |
| 2026-04-22 17:53 | 59.60199 | 16.63166 | 25 ft | 0 kts | 296° |
| 2026-04-22 17:54 | 59.60199 | 16.63165 | 25 ft | 0 kts | 296° |
| 2026-04-22 17:54 | 59.60199 | 16.63164 | 25 ft | 0 kts | 296° |
| 2026-04-22 17:54 | 59.60199 | 16.63163 | 25 ft | 0 kts | 296° |
| 2026-04-22 17:55 | 59.60199 | 16.63162 | 25 ft | 0 kts | 296° |